Dyess Air Force Base
KDYS : now visible

Airfield :











YOU CAN JOIN US ON...

 
LOGIN :

Register | Disclaimer

   EN    FR    IT 

 









Legend :    VFR   Marginal VFR   IFR   Intensive IFR   Very Intensive IFR
Visi :
Ceiling :
>= 8 km
>= 3000ft
5 to 8 km
1000 to 3000 ft
1500m to 5 km
500 to 1000 ft
800 to 1500m
200 to 500 ft
< 800m
< 200 ft
Symbols :   Thunderstorms  Fog  Heavy snow  Heavy precipitations  Wind > 20 kt






- Airport Elevation : 1789 ft


KDYS - Dyess Air Force Base

CURRENT METAR :
  • 021656Z AUTO 12005KT 10SM FEW180 FEW210 35/14 A2995 RMK AO2 SLP084 T03540141

EXPIRED METARs :
  • 021556Z AUTO 16010KT 10SM CLR 34/17 A2995 RMK AO2 SLP085 T03360169
  • 021456Z AUTO 18010KT 10SM CLR 32/17 A2995 RMK AO2 SLP085 T03200171 52005

TAF AMD TAF KDYS
Valid from the 02 at 16:00 until the 03 at 21:00 UTC


021625Z 0216/0321 VRB06KT 9999 FEW100 QNH2982INS
BECMG 0312/0313 19012G18KT 9999 SCT080 QNH2995INS
BECMG 0319/0320 VRB15G25KT 9000 -TSRA BKN060CB QNH2992INS TX39/0220Z TN24/0310Z LAST NO AMD AFT 0216 NEXT 0222
KZFW FIR / North America



MET'MAP, your aeronautical weather chart ! - Copyright ORBIFLY December 2007 - Disclaimer

ORBIFLY MET'MAP TEAM :

Programming & Development : Alexandra Zaïnal
Original concept : Baudouin d'Aumeries
Technical & hardware support : Manuel Goepfert
Assistance : Marc-Olivier Méhu




SOURCES & CREDITS :

   NOAA       Earth
Advisory